createdAt,value
2019-01-15T00:00:58.514Z,5.53
2019-01-15T00:07:04.807Z,5.80
2019-01-15T00:13:10.937Z,6.33
2019-01-15T00:19:16.664Z,7.23
2019-01-15T00:25:22.590Z,7.23
2019-01-15T00:31:28.378Z,8.13
2019-01-15T00:37:34.599Z,7.83
2019-01-15T00:43:40.315Z,8.50
2019-01-15T00:49:46.423Z,7.70
2019-01-15T00:55:52.143Z,8.60
2019-01-15T01:01:58.074Z,8.90
2019-01-15T01:08:04.224Z,7.67
2019-01-15T01:14:10.492Z,8.93
2019-01-15T01:20:21.624Z,7.80
2019-01-15T01:26:27.563Z,8.03
2019-01-15T01:32:33.509Z,9.57
2019-01-15T01:38:39.218Z,11.20
2019-01-15T01:44:45.020Z,12.77
2019-01-15T01:50:51.060Z,12.07
2019-01-15T01:56:56.804Z,11.27
2019-01-15T02:03:02.706Z,9.97
2019-01-15T02:09:10.481Z,10.43
2019-01-15T02:15:22.351Z,10.10
2019-01-15T02:21:28.387Z,10.40
2019-01-15T02:27:34.744Z,9.60
2019-01-15T02:33:40.481Z,9.70
2019-01-15T02:39:46.238Z,10.73
2019-01-15T02:45:52.097Z,9.97
2019-01-15T02:51:58.030Z,10.37
2019-01-15T02:58:03.956Z,11.80
2019-01-15T03:04:09.976Z,11.23
2019-01-15T03:10:17.847Z,11.37
2019-01-15T03:16:23.800Z,11.80
2019-01-15T03:22:29.560Z,11.70
2019-01-15T03:28:35.393Z,11.97
2019-01-15T03:34:41.111Z,12.13
2019-01-15T03:40:47.167Z,12.57
2019-01-15T03:46:53.017Z,13.30
2019-01-15T03:52:58.762Z,12.93
2019-01-15T03:59:05.265Z,12.70
2019-01-15T04:05:11.610Z,13.57
2019-01-15T04:11:17.334Z,14.70
2019-01-15T04:17:23.060Z,14.53
2019-01-15T04:23:29.001Z,14.80
2019-01-15T04:29:34.980Z,16.70
2019-01-15T04:35:40.810Z,17.03
2019-01-15T04:41:46.989Z,16.23
2019-01-15T04:47:53.414Z,16.17
2019-01-15T04:53:59.328Z,16.10
2019-01-15T05:00:07.002Z,15.37
2019-01-15T05:06:13.286Z,13.27
2019-01-15T05:12:19.131Z,14.03
2019-01-15T05:18:25.070Z,14.73
2019-01-15T05:24:30.858Z,14.60
2019-01-15T05:30:36.627Z,14.93
2019-01-15T05:36:42.382Z,15.70
2019-01-15T05:42:48.831Z,14.93
2019-01-15T05:48:54.583Z,15.40
2019-01-15T05:55:00.730Z,16.43
2019-01-15T06:01:07.074Z,15.57
2019-01-15T06:07:13.021Z,16.20
2019-01-15T06:13:19.000Z,17.43
2019-01-15T06:19:24.744Z,17.03
2019-01-15T06:25:30.708Z,17.43
2019-01-15T06:31:36.572Z,17.37
2019-01-15T06:37:42.360Z,17.00
2019-01-15T06:43:50.150Z,17.00
2019-01-15T06:49:57.521Z,16.80
2019-01-15T07:03:34.889Z,15.77
2019-01-15T07:09:52.534Z,17.70
2019-01-15T07:15:59.999Z,16.23
2019-01-15T07:22:06.130Z,15.97
2019-01-15T07:28:12.385Z,17.37
2019-01-15T07:34:18.487Z,17.77
2019-01-15T07:40:24.488Z,16.93
2019-01-15T07:46:30.355Z,16.67
2019-01-15T07:52:36.928Z,16.70
2019-01-15T07:58:42.721Z,15.97
2019-01-15T08:04:48.467Z,16.83
2019-01-15T08:10:57.169Z,15.57
2019-01-15T08:17:02.149Z,16.33
2019-01-15T08:23:16.899Z,16.40
2019-01-15T08:29:22.714Z,16.70
2019-01-15T08:35:28.519Z,18.47
2019-01-15T08:41:34.390Z,19.80
2019-01-15T08:47:46.686Z,18.97
2019-01-15T08:53:52.844Z,18.83
2019-01-15T08:59:58.553Z,19.47
2019-01-15T09:06:04.346Z,19.43
2019-01-15T09:12:10.409Z,19.43
2019-01-15T09:18:16.932Z,20.13
2019-01-15T09:24:23.899Z,19.40
2019-01-15T09:30:29.810Z,18.13
2019-01-15T09:36:35.809Z,19.43
2019-01-15T09:42:41.607Z,18.13
2019-01-15T09:48:47.786Z,17.90
2019-01-15T09:54:53.589Z,18.17
2019-01-15T10:00:59.396Z,16.77
2019-01-15T10:07:05.326Z,17.97
2019-01-15T10:13:11.155Z,16.13
2019-01-15T10:19:16.996Z,16.33
2019-01-15T10:25:28.167Z,15.40
2019-01-15T10:32:46.377Z,14.27
2019-01-15T10:38:52.210Z,14.00
2019-01-15T10:44:58.234Z,14.93
2019-01-15T10:51:04.052Z,13.00
2019-01-15T10:57:09.794Z,12.60
2019-01-15T11:03:15.608Z,12.90
2019-01-15T11:09:21.469Z,11.50
2019-01-15T11:15:27.482Z,11.07
2019-01-15T11:21:33.586Z,9.80
2019-01-15T11:27:40.288Z,9.40
2019-01-15T11:33:46.183Z,9.20
2019-01-15T11:39:52.321Z,9.03
2019-01-15T11:45:58.195Z,9.57
2019-01-15T11:52:04.130Z,8.33
2019-01-15T11:58:10.038Z,7.13
2019-01-15T12:04:43.280Z,7.50
2019-01-15T12:11:06.732Z,6.13
2019-01-15T12:17:32.094Z,5.57
2019-01-15T12:23:55.300Z,6.07
2019-01-15T12:30:29.214Z,5.30
2019-01-15T12:36:57.170Z,6.50
2019-01-15T12:43:37.017Z,6.97
2019-01-15T12:50:00.444Z,7.00
2019-01-15T12:56:37.491Z,7.03
2019-01-15T13:03:01.645Z,5.07
2019-01-15T13:09:43.988Z,4.80
2019-01-15T13:16:09.034Z,6.40
2019-01-15T13:22:32.245Z,6.30
2019-01-15T13:28:55.495Z,4.70
2019-01-15T13:35:18.918Z,4.47
2019-01-15T13:41:33.485Z,4.87
2019-01-15T13:47:56.868Z,6.27
2019-01-15T13:54:20.158Z,5.67
2019-01-15T14:00:47.488Z,6.00
2019-01-15T14:07:15.229Z,6.00
2019-01-15T14:13:46.089Z,8.60
2019-01-15T14:20:07.727Z,4.07
2019-01-15T14:26:47.216Z,4.10
2019-01-15T14:33:11.988Z,4.10
2019-01-15T14:39:46.514Z,4.00
2019-01-15T14:46:19.534Z,3.90
2019-01-15T14:52:53.528Z,3.97
2019-01-15T14:59:29.366Z,3.30
2019-01-15T15:05:59.711Z,4.57
2019-01-15T15:12:13.370Z,3.67
2019-01-15T15:18:37.778Z,3.57
2019-01-15T15:25:17.727Z,3.80
2019-01-15T15:32:01.691Z,4.23
2019-01-15T15:38:32.166Z,3.60
2019-01-15T15:44:59.794Z,4.30
2019-01-15T15:51:36.447Z,3.90
2019-01-15T15:58:18.945Z,4.17
2019-01-15T16:04:42.038Z,3.90
2019-01-15T16:11:18.605Z,3.90
2019-01-15T16:17:43.937Z,3.80
2019-01-15T16:24:11.664Z,3.60
2019-01-15T16:30:36.792Z,3.90
2019-01-15T16:37:00.001Z,4.20
2019-01-15T16:43:23.268Z,3.60
2019-01-15T16:49:46.344Z,3.83
2019-01-15T16:56:17.052Z,5.10
2019-01-15T17:02:41.756Z,4.40
2019-01-15T17:09:04.467Z,4.53
2019-01-15T17:15:30.807Z,5.37
2019-01-15T17:22:10.425Z,5.20
2019-01-15T17:28:46.969Z,5.30
2019-01-15T17:35:10.508Z,5.33
2019-01-15T17:41:41.844Z,6.43
2019-01-15T17:48:15.859Z,6.07
2019-01-15T17:54:49.435Z,6.20
2019-01-15T18:01:47.220Z,5.97
2019-01-15T18:07:44.876Z,6.60
2019-01-15T18:14:26.868Z,6.57
2019-01-15T18:21:18.424Z,6.00
2019-01-15T18:27:37.456Z,6.50
2019-01-15T18:34:00.849Z,6.63
2019-01-15T18:40:37.523Z,6.30
2019-01-15T18:47:01.458Z,5.90
2019-01-15T18:53:28.741Z,6.10
2019-01-15T18:59:52.171Z,6.27
2019-01-15T19:06:20.595Z,6.63
2019-01-15T19:12:43.143Z,6.17
2019-01-15T19:19:06.599Z,6.60
2019-01-15T19:25:49.589Z,6.53
2019-01-15T19:32:15.105Z,6.80
2019-01-15T19:38:49.566Z,6.03
2019-01-15T19:45:11.698Z,6.67
2019-01-15T19:51:42.568Z,5.97
2019-01-15T19:58:01.418Z,6.13
2019-01-15T20:04:26.609Z,6.10
2019-01-15T20:10:50.258Z,6.20
2019-01-15T20:17:18.528Z,6.20
2019-01-15T20:23:51.137Z,5.37
2019-01-15T20:30:15.056Z,6.07
2019-01-15T20:36:39.379Z,5.30
2019-01-15T20:43:02.202Z,5.80
2019-01-15T20:49:38.842Z,6.10
2019-01-15T20:56:18.617Z,5.93
2019-01-15T21:02:42.602Z,5.60
2019-01-15T21:09:02.804Z,5.93
2019-01-15T21:15:31.477Z,6.43
2019-01-15T21:21:55.027Z,6.00
2019-01-15T21:28:11.793Z,6.70
2019-01-15T21:34:36.455Z,6.93
2019-01-15T21:40:57.673Z,7.23
2019-01-15T21:47:40.219Z,6.93
2019-01-15T21:53:58.081Z,7.63
2019-01-15T22:00:31.414Z,7.73
2019-01-15T22:07:05.224Z,7.93
2019-01-15T22:13:28.434Z,7.57
2019-01-15T22:19:51.497Z,7.50
2019-01-15T22:26:16.190Z,7.37
2019-01-15T22:32:45.670Z,7.47
2019-01-15T22:39:17.013Z,8.10
2019-01-15T22:45:36.078Z,8.13
2019-01-15T22:51:59.771Z,8.40
2019-01-15T22:58:24.812Z,9.07
2019-01-15T23:04:45.185Z,9.10
2019-01-15T23:11:09.436Z,9.93
2019-01-15T23:17:31.172Z,9.77
2019-01-15T23:24:01.681Z,9.80
2019-01-15T23:30:34.390Z,10.37
2019-01-15T23:36:55.079Z,9.80
2019-01-15T23:43:19.824Z,9.20
2019-01-15T23:49:46.892Z,10.57
2019-01-15T23:56:10.255Z,10.17
